sensor_id;sensor_type;location;lat;lon;timestamp;temperature;humidity
66257;DHT22;53049;43.446;3.698;2023-08-30T00:00:18;19.10;99.90
66257;DHT22;53049;43.446;3.698;2023-08-30T00:02:44;19.10;99.90
66257;DHT22;53049;43.446;3.698;2023-08-30T00:05:10;19.10;99.90
66257;DHT22;53049;43.446;3.698;2023-08-30T00:07:36;19.10;99.90
66257;DHT22;53049;43.446;3.698;2023-08-30T00:10:02;19.10;99.90
66257;DHT22;53049;43.446;3.698;2023-08-30T00:12:29;19.10;99.90
66257;DHT22;53049;43.446;3.698;2023-08-30T00:14:55;19.10;99.90
66257;DHT22;53049;43.446;3.698;2023-08-30T00:17:20;19.10;99.90
66257;DHT22;53049;43.446;3.698;2023-08-30T00:19:46;19.10;99.90
66257;DHT22;53049;43.446;3.698;2023-08-30T00:22:13;19.10;99.90
66257;DHT22;53049;43.446;3.698;2023-08-30T00:24:39;19.10;99.90
66257;DHT22;53049;43.446;3.698;2023-08-30T00:27:05;19.10;99.90
66257;DHT22;53049;43.446;3.698;2023-08-30T00:29:31;19.10;99.90
66257;DHT22;53049;43.446;3.698;2023-08-30T00:31:56;19.10;99.90
66257;DHT22;53049;43.446;3.698;2023-08-30T00:34:22;19.00;99.90
66257;DHT22;53049;43.446;3.698;2023-08-30T00:36:48;19.00;99.90
66257;DHT22;53049;43.446;3.698;2023-08-30T00:39:14;19.00;99.90
66257;DHT22;53049;43.446;3.698;2023-08-30T00:41:40;18.90;99.90
66257;DHT22;53049;43.446;3.698;2023-08-30T00:44:06;18.90;99.90
66257;DHT22;53049;43.446;3.698;2023-08-30T00:46:32;18.90;99.90
66257;DHT22;53049;43.446;3.698;2023-08-30T00:48:59;18.90;99.90
66257;DHT22;53049;43.446;3.698;2023-08-30T00:51:26;18.80;99.90
66257;DHT22;53049;43.446;3.698;2023-08-30T00:53:54;18.80;99.90
66257;DHT22;53049;43.446;3.698;2023-08-30T00:56:19;18.90;99.90
66257;DHT22;53049;43.446;3.698;2023-08-30T00:58:45;18.80;99.90
66257;DHT22;53049;43.446;3.698;2023-08-30T01:01:12;18.80;99.90
66257;DHT22;53049;43.446;3.698;2023-08-30T01:03:39;18.80;99.90
66257;DHT22;53049;43.446;3.698;2023-08-30T01:06:05;18.80;99.90
66257;DHT22;53049;43.446;3.698;2023-08-30T01:08:30;18.70;99.90
66257;DHT22;53049;43.446;3.698;2023-08-30T01:11:19;18.70;99.90
66257;DHT22;53049;43.446;3.698;2023-08-30T01:14:08;18.70;99.90
66257;DHT22;53049;43.446;3.698;2023-08-30T01:16:36;18.60;99.90
66257;DHT22;53049;43.446;3.698;2023-08-30T01:19:26;18.60;99.90
66257;DHT22;53049;43.446;3.698;2023-08-30T01:22:17;18.60;99.90
66257;DHT22;53049;43.446;3.698;2023-08-30T01:27:31;18.50;99.90
66257;DHT22;53049;43.446;3.698;2023-08-30T01:30:01;18.50;99.90
66257;DHT22;53049;43.446;3.698;2023-08-30T01:32:27;18.50;99.90
66257;DHT22;53049;43.446;3.698;2023-08-30T01:34:55;18.40;99.90
66257;DHT22;53049;43.446;3.698;2023-08-30T01:37:21;18.40;99.90
66257;DHT22;53049;43.446;3.698;2023-08-30T01:39:48;18.40;99.90
66257;DHT22;53049;43.446;3.698;2023-08-30T01:42:14;18.40;99.90
66257;DHT22;53049;43.446;3.698;2023-08-30T01:44:41;18.40;99.90
66257;DHT22;53049;43.446;3.698;2023-08-30T01:47:10;18.30;99.90
66257;DHT22;53049;43.446;3.698;2023-08-30T01:49:36;18.30;99.90
66257;DHT22;53049;43.446;3.698;2023-08-30T01:52:06;18.30;99.90
66257;DHT22;53049;43.446;3.698;2023-08-30T01:54:32;18.30;99.90
66257;DHT22;53049;43.446;3.698;2023-08-30T01:56:58;18.20;99.90
66257;DHT22;53049;43.446;3.698;2023-08-30T01:59:24;18.20;99.90
66257;DHT22;53049;43.446;3.698;2023-08-30T02:01:51;18.10;99.90
66257;DHT22;53049;43.446;3.698;2023-08-30T02:04:17;18.10;99.90
66257;DHT22;53049;43.446;3.698;2023-08-30T02:06:48;18.10;99.90
66257;DHT22;53049;43.446;3.698;2023-08-30T02:09:23;18.10;99.90
66257;DHT22;53049;43.446;3.698;2023-08-30T02:11:51;18.10;99.90
66257;DHT22;53049;43.446;3.698;2023-08-30T02:14:18;18.00;99.90
66257;DHT22;53049;43.446;3.698;2023-08-30T02:16:46;18.00;99.90
66257;DHT22;53049;43.446;3.698;2023-08-30T02:19:13;18.00;99.90
66257;DHT22;53049;43.446;3.698;2023-08-30T02:21:46;18.00;99.90
66257;DHT22;53049;43.446;3.698;2023-08-30T02:24:11;18.00;99.90
66257;DHT22;53049;43.446;3.698;2023-08-30T02:26:37;18.00;99.90
66257;DHT22;53049;43.446;3.698;2023-08-30T02:29:03;18.00;99.90
66257;DHT22;53049;43.446;3.698;2023-08-30T02:31:29;18.00;99.90
66257;DHT22;53049;43.446;3.698;2023-08-30T02:33:54;18.00;99.90
66257;DHT22;53049;43.446;3.698;2023-08-30T02:36:20;18.00;99.90
66257;DHT22;53049;43.446;3.698;2023-08-30T02:38:46;18.00;99.90
66257;DHT22;53049;43.446;3.698;2023-08-30T02:41:11;18.00;99.90
66257;DHT22;53049;43.446;3.698;2023-08-30T02:43:38;18.00;99.90
66257;DHT22;53049;43.446;3.698;2023-08-30T02:46:03;18.00;99.90
66257;DHT22;53049;43.446;3.698;2023-08-30T02:48:33;18.00;99.90
66257;DHT22;53049;43.446;3.698;2023-08-30T02:50:59;17.90;99.90
66257;DHT22;53049;43.446;3.698;2023-08-30T02:53:25;17.90;99.90
66257;DHT22;53049;43.446;3.698;2023-08-30T02:55:50;17.90;99.90
66257;DHT22;53049;43.446;3.698;2023-08-30T02:58:16;17.90;99.90
66257;DHT22;53049;43.446;3.698;2023-08-30T03:00:42;17.90;99.90
66257;DHT22;53049;43.446;3.698;2023-08-30T03:03:07;17.90;99.90
66257;DHT22;53049;43.446;3.698;2023-08-30T03:05:33;17.90;99.90
66257;DHT22;53049;43.446;3.698;2023-08-30T03:07:59;17.80;99.90
66257;DHT22;53049;43.446;3.698;2023-08-30T03:10:25;17.80;99.90
66257;DHT22;53049;43.446;3.698;2023-08-30T03:12:50;17.80;99.90
66257;DHT22;53049;43.446;3.698;2023-08-30T03:15:17;17.80;99.90
66257;DHT22;53049;43.446;3.698;2023-08-30T03:17:42;17.80;99.90
66257;DHT22;53049;43.446;3.698;2023-08-30T03:20:08;17.70;99.90
66257;DHT22;53049;43.446;3.698;2023-08-30T03:22:34;17.70;99.90
66257;DHT22;53049;43.446;3.698;2023-08-30T03:25:00;17.80;99.90
66257;DHT22;53049;43.446;3.698;2023-08-30T03:27:28;17.70;99.90
66257;DHT22;53049;43.446;3.698;2023-08-30T03:29:55;17.70;99.90
66257;DHT22;53049;43.446;3.698;2023-08-30T03:32:21;17.70;99.90
66257;DHT22;53049;43.446;3.698;2023-08-30T03:34:47;17.70;99.90
66257;DHT22;53049;43.446;3.698;2023-08-30T03:37:14;17.80;99.90
66257;DHT22;53049;43.446;3.698;2023-08-30T03:39:40;17.80;99.90
66257;DHT22;53049;43.446;3.698;2023-08-30T03:42:05;17.70;99.90
66257;DHT22;53049;43.446;3.698;2023-08-30T03:44:31;17.70;99.90
66257;DHT22;53049;43.446;3.698;2023-08-30T03:46:57;17.70;99.90
66257;DHT22;53049;43.446;3.698;2023-08-30T03:49:23;17.70;99.90
66257;DHT22;53049;43.446;3.698;2023-08-30T03:51:48;17.70;99.90
66257;DHT22;53049;43.446;3.698;2023-08-30T03:54:14;17.70;99.90
66257;DHT22;53049;43.446;3.698;2023-08-30T03:56:42;17.70;99.90
66257;DHT22;53049;43.446;3.698;2023-08-30T03:59:07;17.60;99.90
66257;DHT22;53049;43.446;3.698;2023-08-30T04:01:33;17.60;99.90
66257;DHT22;53049;43.446;3.698;2023-08-30T04:03:59;17.50;99.90
66257;DHT22;53049;43.446;3.698;2023-08-30T04:06:24;17.50;99.90
66257;DHT22;53049;43.446;3.698;2023-08-30T04:08:50;17.40;99.90
66257;DHT22;53049;43.446;3.698;2023-08-30T04:11:15;17.40;99.90
66257;DHT22;53049;43.446;3.698;2023-08-30T04:13:41;17.40;99.90
66257;DHT22;53049;43.446;3.698;2023-08-30T04:16:07;17.40;99.90
66257;DHT22;53049;43.446;3.698;2023-08-30T04:18:32;17.40;99.90
66257;DHT22;53049;43.446;3.698;2023-08-30T04:20:58;17.40;99.90
66257;DHT22;53049;43.446;3.698;2023-08-30T04:23:24;17.40;99.90
66257;DHT22;53049;43.446;3.698;2023-08-30T04:25:49;17.40;99.90
66257;DHT22;53049;43.446;3.698;2023-08-30T04:28:15;17.40;99.90
66257;DHT22;53049;43.446;3.698;2023-08-30T04:30:41;17.40;99.90
66257;DHT22;53049;43.446;3.698;2023-08-30T04:33:06;17.40;99.90
66257;DHT22;53049;43.446;3.698;2023-08-30T04:35:32;17.40;99.90
66257;DHT22;53049;43.446;3.698;2023-08-30T04:37:59;17.30;99.90
66257;DHT22;53049;43.446;3.698;2023-08-30T04:40:25;17.30;99.90
66257;DHT22;53049;43.446;3.698;2023-08-30T04:42:51;17.40;99.90
66257;DHT22;53049;43.446;3.698;2023-08-30T04:45:16;17.30;99.90
66257;DHT22;53049;43.446;3.698;2023-08-30T04:47:42;17.40;99.90
66257;DHT22;53049;43.446;3.698;2023-08-30T04:50:11;17.40;99.90
66257;DHT22;53049;43.446;3.698;2023-08-30T04:52:36;17.40;99.90
66257;DHT22;53049;43.446;3.698;2023-08-30T04:55:02;17.40;99.90
66257;DHT22;53049;43.446;3.698;2023-08-30T04:57:28;17.40;99.90
66257;DHT22;53049;43.446;3.698;2023-08-30T04:59:55;17.40;99.90
66257;DHT22;53049;43.446;3.698;2023-08-30T05:02:20;17.40;99.90
66257;DHT22;53049;43.446;3.698;2023-08-30T05:04:46;17.40;99.90
66257;DHT22;53049;43.446;3.698;2023-08-30T05:07:12;17.30;99.90
66257;DHT22;53049;43.446;3.698;2023-08-30T05:09:38;17.30;99.90
66257;DHT22;53049;43.446;3.698;2023-08-30T05:12:06;17.40;99.90
66257;DHT22;53049;43.446;3.698;2023-08-30T05:14:32;17.30;99.90
66257;DHT22;53049;43.446;3.698;2023-08-30T05:16:57;17.30;99.90
66257;DHT22;53049;43.446;3.698;2023-08-30T05:19:23;17.30;99.90
66257;DHT22;53049;43.446;3.698;2023-08-30T05:21:49;17.40;99.90
66257;DHT22;53049;43.446;3.698;2023-08-30T05:24:20;17.30;99.90
66257;DHT22;53049;43.446;3.698;2023-08-30T05:26:46;17.30;99.90
66257;DHT22;53049;43.446;3.698;2023-08-30T05:29:13;17.30;99.90
66257;DHT22;53049;43.446;3.698;2023-08-30T05:31:39;17.20;99.90
66257;DHT22;53049;43.446;3.698;2023-08-30T05:34:05;17.20;99.90
66257;DHT22;53049;43.446;3.698;2023-08-30T05:36:31;17.20;99.90
66257;DHT22;53049;43.446;3.698;2023-08-30T05:38:56;17.20;99.90
66257;DHT22;53049;43.446;3.698;2023-08-30T05:41:22;17.20;99.90
66257;DHT22;53049;43.446;3.698;2023-08-30T05:43:47;17.20;99.90
66257;DHT22;53049;43.446;3.698;2023-08-30T05:46:13;17.20;99.90
66257;DHT22;53049;43.446;3.698;2023-08-30T05:48:41;17.30;99.90
66257;DHT22;53049;43.446;3.698;2023-08-30T05:51:07;17.20;99.90
66257;DHT22;53049;43.446;3.698;2023-08-30T05:53:32;17.20;99.90
66257;DHT22;53049;43.446;3.698;2023-08-30T05:55:58;17.30;99.90
66257;DHT22;53049;43.446;3.698;2023-08-30T05:58:23;17.30;99.90
66257;DHT22;53049;43.446;3.698;2023-08-30T06:00:49;17.30;99.90
66257;DHT22;53049;43.446;3.698;2023-08-30T06:03:15;17.30;99.90
66257;DHT22;53049;43.446;3.698;2023-08-30T06:05:41;17.30;99.90
66257;DHT22;53049;43.446;3.698;2023-08-30T06:08:08;17.30;99.90
66257;DHT22;53049;43.446;3.698;2023-08-30T06:10:35;17.30;99.90
66257;DHT22;53049;43.446;3.698;2023-08-30T06:13:01;17.40;99.90
66257;DHT22;53049;43.446;3.698;2023-08-30T06:15:28;17.40;99.90
66257;DHT22;53049;43.446;3.698;2023-08-30T06:17:54;17.50;99.90
66257;DHT22;53049;43.446;3.698;2023-08-30T06:20:19;17.40;99.90
66257;DHT22;53049;43.446;3.698;2023-08-30T06:22:45;17.50;99.90
66257;DHT22;53049;43.446;3.698;2023-08-30T06:25:11;17.50;99.90
66257;DHT22;53049;43.446;3.698;2023-08-30T06:27:42;17.50;99.90
66257;DHT22;53049;43.446;3.698;2023-08-30T06:30:11;17.50;99.90
66257;DHT22;53049;43.446;3.698;2023-08-30T06:32:37;17.50;99.90
66257;DHT22;53049;43.446;3.698;2023-08-30T06:35:03;17.60;99.90
66257;DHT22;53049;43.446;3.698;2023-08-30T06:37:29;17.60;99.90
66257;DHT22;53049;43.446;3.698;2023-08-30T06:39:55;17.70;99.90
66257;DHT22;53049;43.446;3.698;2023-08-30T06:42:21;17.70;99.90
66257;DHT22;53049;43.446;3.698;2023-08-30T06:44:46;17.80;99.90
66257;DHT22;53049;43.446;3.698;2023-08-30T06:47:12;17.80;99.90
66257;DHT22;53049;43.446;3.698;2023-08-30T06:49:37;17.80;99.90
66257;DHT22;53049;43.446;3.698;2023-08-30T06:52:03;17.80;99.90
66257;DHT22;53049;43.446;3.698;2023-08-30T06:54:33;17.90;99.90
66257;DHT22;53049;43.446;3.698;2023-08-30T06:57:00;17.90;99.90
66257;DHT22;53049;43.446;3.698;2023-08-30T06:59:26;17.90;99.90
66257;DHT22;53049;43.446;3.698;2023-08-30T07:01:52;17.90;99.90
66257;DHT22;53049;43.446;3.698;2023-08-30T07:04:18;18.00;99.90
66257;DHT22;53049;43.446;3.698;2023-08-30T07:06:44;18.00;99.90
66257;DHT22;53049;43.446;3.698;2023-08-30T07:09:09;18.00;99.90
66257;DHT22;53049;43.446;3.698;2023-08-30T07:11:37;18.00;99.90
66257;DHT22;53049;43.446;3.698;2023-08-30T07:14:02;18.10;99.90
66257;DHT22;53049;43.446;3.698;2023-08-30T07:16:29;18.00;99.90
66257;DHT22;53049;43.446;3.698;2023-08-30T07:18:57;18.00;99.90
66257;DHT22;53049;43.446;3.698;2023-08-30T07:21:22;18.00;99.90
66257;DHT22;53049;43.446;3.698;2023-08-30T07:23:48;18.10;99.90
66257;DHT22;53049;43.446;3.698;2023-08-30T07:26:14;18.10;99.90
66257;DHT22;53049;43.446;3.698;2023-08-30T07:28:39;18.10;99.90
66257;DHT22;53049;43.446;3.698;2023-08-30T07:31:05;18.10;99.90
66257;DHT22;53049;43.446;3.698;2023-08-30T07:33:31;18.20;99.90
66257;DHT22;53049;43.446;3.698;2023-08-30T07:35:57;18.30;99.90
66257;DHT22;53049;43.446;3.698;2023-08-30T07:38:22;18.30;99.90
66257;DHT22;53049;43.446;3.698;2023-08-30T07:40:48;18.30;99.90
66257;DHT22;53049;43.446;3.698;2023-08-30T07:43:14;18.40;99.90
66257;DHT22;53049;43.446;3.698;2023-08-30T07:45:39;18.40;99.90
66257;DHT22;53049;43.446;3.698;2023-08-30T07:48:05;18.40;99.90
66257;DHT22;53049;43.446;3.698;2023-08-30T07:50:31;18.50;99.90
66257;DHT22;53049;43.446;3.698;2023-08-30T07:52:56;18.50;99.90
66257;DHT22;53049;43.446;3.698;2023-08-30T07:55:22;18.60;99.90
66257;DHT22;53049;43.446;3.698;2023-08-30T07:57:48;18.60;99.90
66257;DHT22;53049;43.446;3.698;2023-08-30T08:00:13;18.70;99.90
66257;DHT22;53049;43.446;3.698;2023-08-30T08:02:40;18.80;99.90
66257;DHT22;53049;43.446;3.698;2023-08-30T08:05:06;18.80;99.90
66257;DHT22;53049;43.446;3.698;2023-08-30T08:07:32;19.00;99.90
66257;DHT22;53049;43.446;3.698;2023-08-30T08:09:58;19.00;99.90
66257;DHT22;53049;43.446;3.698;2023-08-30T08:12:23;19.10;99.90
66257;DHT22;53049;43.446;3.698;2023-08-30T08:14:49;19.20;99.90
66257;DHT22;53049;43.446;3.698;2023-08-30T08:17:15;19.40;99.90
66257;DHT22;53049;43.446;3.698;2023-08-30T08:19:40;19.60;99.90
66257;DHT22;53049;43.446;3.698;2023-08-30T08:22:08;20.00;99.90
66257;DHT22;53049;43.446;3.698;2023-08-30T08:24:33;19.90;99.90
66257;DHT22;53049;43.446;3.698;2023-08-30T08:26:59;19.90;99.90
66257;DHT22;53049;43.446;3.698;2023-08-30T08:29:27;19.90;99.90
66257;DHT22;53049;43.446;3.698;2023-08-30T08:31:53;20.00;99.90
66257;DHT22;53049;43.446;3.698;2023-08-30T08:34:19;20.10;99.90
66257;DHT22;53049;43.446;3.698;2023-08-30T08:36:44;20.10;99.90
66257;DHT22;53049;43.446;3.698;2023-08-30T08:39:10;20.20;99.90
66257;DHT22;53049;43.446;3.698;2023-08-30T08:41:43;20.40;99.90
66257;DHT22;53049;43.446;3.698;2023-08-30T08:44:10;20.80;99.90
66257;DHT22;53049;43.446;3.698;2023-08-30T08:46:36;21.80;99.90
66257;DHT22;53049;43.446;3.698;2023-08-30T08:49:12;24.50;99.90
66257;DHT22;53049;43.446;3.698;2023-08-30T08:51:39;26.20;99.90
66257;DHT22;53049;43.446;3.698;2023-08-30T08:54:05;26.60;99.90
66257;DHT22;53049;43.446;3.698;2023-08-30T08:56:32;25.40;99.90
66257;DHT22;53049;43.446;3.698;2023-08-30T08:58:59;23.80;99.90
66257;DHT22;53049;43.446;3.698;2023-08-30T09:01:25;22.60;99.90
66257;DHT22;53049;43.446;3.698;2023-08-30T09:03:51;22.10;99.90
66257;DHT22;53049;43.446;3.698;2023-08-30T09:06:18;21.80;99.90
66257;DHT22;53049;43.446;3.698;2023-08-30T09:08:43;21.60;99.90
66257;DHT22;53049;43.446;3.698;2023-08-30T09:11:09;21.60;99.90
66257;DHT22;53049;43.446;3.698;2023-08-30T09:13:35;21.90;99.90
66257;DHT22;53049;43.446;3.698;2023-08-30T09:16:01;22.30;99.90
66257;DHT22;53049;43.446;3.698;2023-08-30T09:18:28;22.90;99.90
66257;DHT22;53049;43.446;3.698;2023-08-30T09:21:14;22.80;99.90
66257;DHT22;53049;43.446;3.698;2023-08-30T09:23:40;22.80;99.90
66257;DHT22;53049;43.446;3.698;2023-08-30T09:26:05;22.80;99.90
66257;DHT22;53049;43.446;3.698;2023-08-30T09:28:31;23.10;99.90
66257;DHT22;53049;43.446;3.698;2023-08-30T09:30:58;23.00;99.90
66257;DHT22;53049;43.446;3.698;2023-08-30T09:33:31;23.20;99.90
66257;DHT22;53049;43.446;3.698;2023-08-30T09:36:00;23.20;99.90
66257;DHT22;53049;43.446;3.698;2023-08-30T09:38:26;22.80;99.90
66257;DHT22;53049;43.446;3.698;2023-08-30T09:41:05;23.20;99.90
66257;DHT22;53049;43.446;3.698;2023-08-30T09:43:32;23.40;99.90
66257;DHT22;53049;43.446;3.698;2023-08-30T09:46:03;23.70;99.90
66257;DHT22;53049;43.446;3.698;2023-08-30T09:48:29;23.80;99.90
66257;DHT22;53049;43.446;3.698;2023-08-30T09:50:58;23.70;99.90
66257;DHT22;53049;43.446;3.698;2023-08-30T09:53:26;23.70;99.90
66257;DHT22;53049;43.446;3.698;2023-08-30T09:55:56;24.10;99.90
66257;DHT22;53049;43.446;3.698;2023-08-30T09:58:23;23.80;99.90
66257;DHT22;53049;43.446;3.698;2023-08-30T10:00:50;23.80;99.90
66257;DHT22;53049;43.446;3.698;2023-08-30T10:03:16;24.00;99.90
66257;DHT22;53049;43.446;3.698;2023-08-30T10:05:45;24.30;99.90
66257;DHT22;53049;43.446;3.698;2023-08-30T10:08:11;24.30;99.90
66257;DHT22;53049;43.446;3.698;2023-08-30T10:10:39;23.80;99.90
66257;DHT22;53049;43.446;3.698;2023-08-30T10:13:05;24.20;99.90
66257;DHT22;53049;43.446;3.698;2023-08-30T10:15:33;24.40;99.90
66257;DHT22;53049;43.446;3.698;2023-08-30T10:18:03;24.50;99.90
66257;DHT22;53049;43.446;3.698;2023-08-30T10:20:29;23.80;99.90
66257;DHT22;53049;43.446;3.698;2023-08-30T10:22:56;23.40;99.90
66257;DHT22;53049;43.446;3.698;2023-08-30T10:25:27;23.20;99.90
66257;DHT22;53049;43.446;3.698;2023-08-30T10:27:55;23.30;99.90
66257;DHT22;53049;43.446;3.698;2023-08-30T10:30:23;23.30;99.90
66257;DHT22;53049;43.446;3.698;2023-08-30T10:32:49;23.30;99.90
66257;DHT22;53049;43.446;3.698;2023-08-30T10:35:17;23.40;99.90
66257;DHT22;53049;43.446;3.698;2023-08-30T10:37:54;23.30;99.90
66257;DHT22;53049;43.446;3.698;2023-08-30T10:40:20;23.30;99.90
66257;DHT22;53049;43.446;3.698;2023-08-30T10:42:58;23.30;99.90
66257;DHT22;53049;43.446;3.698;2023-08-30T10:45:23;23.20;99.90
66257;DHT22;53049;43.446;3.698;2023-08-30T10:47:54;23.10;99.90
66257;DHT22;53049;43.446;3.698;2023-08-30T10:50:28;23.30;99.90
66257;DHT22;53049;43.446;3.698;2023-08-30T10:52:57;23.40;99.90
66257;DHT22;53049;43.446;3.698;2023-08-30T10:55:23;23.50;99.90
66257;DHT22;53049;43.446;3.698;2023-08-30T10:58:02;23.40;99.90
66257;DHT22;53049;43.446;3.698;2023-08-30T11:00:29;23.40;99.90
66257;DHT22;53049;43.446;3.698;2023-08-30T11:02:56;23.60;99.90
66257;DHT22;53049;43.446;3.698;2023-08-30T11:05:23;23.70;99.90
66257;DHT22;53049;43.446;3.698;2023-08-30T11:07:50;23.80;99.90
66257;DHT22;53049;43.446;3.698;2023-08-30T11:10:17;23.80;99.90
66257;DHT22;53049;43.446;3.698;2023-08-30T11:12:44;23.80;99.90
66257;DHT22;53049;43.446;3.698;2023-08-30T11:15:11;23.70;99.90
66257;DHT22;53049;43.446;3.698;2023-08-30T11:17:38;23.70;99.90
66257;DHT22;53049;43.446;3.698;2023-08-30T11:20:22;23.90;99.90
66257;DHT22;53049;43.446;3.698;2023-08-30T11:22:48;24.00;99.90
66257;DHT22;53049;43.446;3.698;2023-08-30T11:25:15;24.00;99.90
66257;DHT22;53049;43.446;3.698;2023-08-30T11:27:42;24.00;99.90
66257;DHT22;53049;43.446;3.698;2023-08-30T11:30:09;24.00;99.90
66257;DHT22;53049;43.446;3.698;2023-08-30T11:32:39;24.10;99.90
66257;DHT22;53049;43.446;3.698;2023-08-30T11:35:06;24.20;99.90
66257;DHT22;53049;43.446;3.698;2023-08-30T11:37:32;24.20;99.90
66257;DHT22;53049;43.446;3.698;2023-08-30T11:39:58;24.20;99.90
66257;DHT22;53049;43.446;3.698;2023-08-30T11:42:25;24.10;99.90
66257;DHT22;53049;43.446;3.698;2023-08-30T11:44:51;24.10;99.90
66257;DHT22;53049;43.446;3.698;2023-08-30T11:47:24;24.20;99.90
66257;DHT22;53049;43.446;3.698;2023-08-30T11:49:52;24.30;99.90
66257;DHT22;53049;43.446;3.698;2023-08-30T11:52:19;24.30;99.90
66257;DHT22;53049;43.446;3.698;2023-08-30T11:54:47;24.30;99.90
66257;DHT22;53049;43.446;3.698;2023-08-30T11:57:13;24.30;99.90
66257;DHT22;53049;43.446;3.698;2023-08-30T11:59:39;24.30;99.90
66257;DHT22;53049;43.446;3.698;2023-08-30T12:02:06;24.30;99.90
66257;DHT22;53049;43.446;3.698;2023-08-30T12:04:32;24.30;99.90
66257;DHT22;53049;43.446;3.698;2023-08-30T12:06:58;24.30;99.90
66257;DHT22;53049;43.446;3.698;2023-08-30T12:09:30;24.30;99.90
66257;DHT22;53049;43.446;3.698;2023-08-30T12:12:10;24.20;99.90
66257;DHT22;53049;43.446;3.698;2023-08-30T12:14:37;24.30;99.90
66257;DHT22;53049;43.446;3.698;2023-08-30T12:17:03;24.30;99.90
66257;DHT22;53049;43.446;3.698;2023-08-30T12:19:30;24.50;99.90
66257;DHT22;53049;43.446;3.698;2023-08-30T12:21:56;24.50;99.90
66257;DHT22;53049;43.446;3.698;2023-08-30T12:24:21;24.50;99.90
66257;DHT22;53049;43.446;3.698;2023-08-30T12:26:48;24.60;99.90
66257;DHT22;53049;43.446;3.698;2023-08-30T12:29:14;24.70;99.90
66257;DHT22;53049;43.446;3.698;2023-08-30T12:31:39;24.70;99.90
66257;DHT22;53049;43.446;3.698;2023-08-30T12:34:05;24.60;99.90
66257;DHT22;53049;43.446;3.698;2023-08-30T12:36:31;24.60;99.90
66257;DHT22;53049;43.446;3.698;2023-08-30T12:38:57;24.70;99.90
66257;DHT22;53049;43.446;3.698;2023-08-30T12:41:23;24.70;99.90
66257;DHT22;53049;43.446;3.698;2023-08-30T12:43:49;24.90;99.90
66257;DHT22;53049;43.446;3.698;2023-08-30T12:46:16;24.80;99.90
66257;DHT22;53049;43.446;3.698;2023-08-30T12:48:42;25.00;99.90
66257;DHT22;53049;43.446;3.698;2023-08-30T12:51:08;25.00;99.90
66257;DHT22;53049;43.446;3.698;2023-08-30T12:53:33;24.90;99.90
66257;DHT22;53049;43.446;3.698;2023-08-30T12:55:59;24.90;99.90
66257;DHT22;53049;43.446;3.698;2023-08-30T12:58:24;25.00;99.90
66257;DHT22;53049;43.446;3.698;2023-08-30T13:00:50;25.10;99.90
66257;DHT22;53049;43.446;3.698;2023-08-30T13:03:16;25.00;99.90
66257;DHT22;53049;43.446;3.698;2023-08-30T13:05:42;25.10;99.90
66257;DHT22;53049;43.446;3.698;2023-08-30T13:08:07;25.10;99.90
66257;DHT22;53049;43.446;3.698;2023-08-30T13:10:33;25.10;99.90
66257;DHT22;53049;43.446;3.698;2023-08-30T13:12:59;25.10;99.90
66257;DHT22;53049;43.446;3.698;2023-08-30T13:15:25;25.10;99.90
66257;DHT22;53049;43.446;3.698;2023-08-30T13:17:51;25.10;99.90
66257;DHT22;53049;43.446;3.698;2023-08-30T13:20:17;25.10;99.90
66257;DHT22;53049;43.446;3.698;2023-08-30T13:22:43;25.10;99.90
66257;DHT22;53049;43.446;3.698;2023-08-30T13:25:09;25.10;99.90
66257;DHT22;53049;43.446;3.698;2023-08-30T13:27:35;25.10;99.90
66257;DHT22;53049;43.446;3.698;2023-08-30T13:30:00;25.10;99.90
66257;DHT22;53049;43.446;3.698;2023-08-30T13:32:26;25.10;99.90
66257;DHT22;53049;43.446;3.698;2023-08-30T13:34:52;25.10;99.90
66257;DHT22;53049;43.446;3.698;2023-08-30T13:37:18;25.30;99.90
66257;DHT22;53049;43.446;3.698;2023-08-30T13:39:44;25.30;99.90
66257;DHT22;53049;43.446;3.698;2023-08-30T13:42:09;25.30;99.90
66257;DHT22;53049;43.446;3.698;2023-08-30T13:44:35;25.40;99.90
66257;DHT22;53049;43.446;3.698;2023-08-30T13:47:03;25.40;99.90
66257;DHT22;53049;43.446;3.698;2023-08-30T13:49:30;25.50;99.90
66257;DHT22;53049;43.446;3.698;2023-08-30T13:51:56;25.30;99.90
66257;DHT22;53049;43.446;3.698;2023-08-30T13:54:21;25.40;99.90
66257;DHT22;53049;43.446;3.698;2023-08-30T13:56:47;25.50;99.90
66257;DHT22;53049;43.446;3.698;2023-08-30T13:59:13;25.60;99.90
66257;DHT22;53049;43.446;3.698;2023-08-30T14:01:39;25.60;99.90
66257;DHT22;53049;43.446;3.698;2023-08-30T14:04:05;25.50;99.90
66257;DHT22;53049;43.446;3.698;2023-08-30T14:06:31;25.70;99.90
66257;DHT22;53049;43.446;3.698;2023-08-30T14:08:57;25.70;99.90
66257;DHT22;53049;43.446;3.698;2023-08-30T14:11:23;25.60;99.90
66257;DHT22;53049;43.446;3.698;2023-08-30T14:13:49;25.60;99.90
66257;DHT22;53049;43.446;3.698;2023-08-30T14:16:14;25.60;99.90
66257;DHT22;53049;43.446;3.698;2023-08-30T14:18:40;25.70;99.90
66257;DHT22;53049;43.446;3.698;2023-08-30T14:21:05;25.70;99.90
66257;DHT22;53049;43.446;3.698;2023-08-30T14:23:31;25.70;99.90
66257;DHT22;53049;43.446;3.698;2023-08-30T14:26:02;25.70;99.90
66257;DHT22;53049;43.446;3.698;2023-08-30T14:28:34;25.80;99.90
66257;DHT22;53049;43.446;3.698;2023-08-30T14:31:00;25.70;99.90
66257;DHT22;53049;43.446;3.698;2023-08-30T14:33:25;25.80;99.90
66257;DHT22;53049;43.446;3.698;2023-08-30T14:35:51;25.80;99.90
66257;DHT22;53049;43.446;3.698;2023-08-30T14:38:17;25.80;99.90
66257;DHT22;53049;43.446;3.698;2023-08-30T14:40:42;25.80;99.90
66257;DHT22;53049;43.446;3.698;2023-08-30T14:43:08;25.70;99.90
66257;DHT22;53049;43.446;3.698;2023-08-30T14:45:34;25.90;99.90
66257;DHT22;53049;43.446;3.698;2023-08-30T14:47:59;25.70;99.90
66257;DHT22;53049;43.446;3.698;2023-08-30T14:50:25;25.80;99.90
66257;DHT22;53049;43.446;3.698;2023-08-30T14:52:50;25.70;99.90
66257;DHT22;53049;43.446;3.698;2023-08-30T14:55:20;25.80;99.90
66257;DHT22;53049;43.446;3.698;2023-08-30T14:57:46;25.90;99.90
66257;DHT22;53049;43.446;3.698;2023-08-30T15:00:12;25.90;99.90
66257;DHT22;53049;43.446;3.698;2023-08-30T15:02:37;25.90;99.90
66257;DHT22;53049;43.446;3.698;2023-08-30T15:05:03;25.80;99.90
66257;DHT22;53049;43.446;3.698;2023-08-30T15:07:28;25.80;99.90
66257;DHT22;53049;43.446;3.698;2023-08-30T15:09:54;25.80;99.90
66257;DHT22;53049;43.446;3.698;2023-08-30T15:12:20;25.70;99.90
66257;DHT22;53049;43.446;3.698;2023-08-30T15:14:45;25.70;99.90
66257;DHT22;53049;43.446;3.698;2023-08-30T15:17:13;25.70;99.90
66257;DHT22;53049;43.446;3.698;2023-08-30T15:19:39;25.80;99.90
66257;DHT22;53049;43.446;3.698;2023-08-30T15:22:04;25.80;99.90
66257;DHT22;53049;43.446;3.698;2023-08-30T15:24:30;25.90;99.90
66257;DHT22;53049;43.446;3.698;2023-08-30T15:26:56;25.80;99.90
66257;DHT22;53049;43.446;3.698;2023-08-30T15:29:22;25.90;99.90